sensor_id;sensor_type;location;lat;lon;timestamp;P1;durP1;ratioP1;P2;durP2;ratioP2
6763;SDS011;47432;48.760;9.178;2023-08-24T00:01:16;10.70;;;6.03;;
6763;SDS011;47432;48.760;9.178;2023-08-24T00:03:44;11.10;;;6.43;;
6763;SDS011;47432;48.760;9.178;2023-08-24T00:06:13;11.53;;;6.20;;
6763;SDS011;47432;48.760;9.178;2023-08-24T00:08:39;11.80;;;6.00;;
6763;SDS011;47432;48.760;9.178;2023-08-24T00:11:05;10.10;;;6.13;;
6763;SDS011;47432;48.760;9.178;2023-08-24T00:13:32;9.87;;;6.30;;
6763;SDS011;47432;48.760;9.178;2023-08-24T00:15:58;10.80;;;5.90;;
6763;SDS011;47432;48.760;9.178;2023-08-24T00:18:24;12.90;;;6.77;;
6763;SDS011;47432;48.760;9.178;2023-08-24T00:20:53;11.00;;;6.13;;
6763;SDS011;47432;48.760;9.178;2023-08-24T00:23:19;9.27;;;5.80;;
6763;SDS011;47432;48.760;9.178;2023-08-24T00:25:44;10.37;;;6.10;;
6763;SDS011;47432;48.760;9.178;2023-08-24T00:28:10;11.03;;;5.97;;
6763;SDS011;47432;48.760;9.178;2023-08-24T00:30:36;10.57;;;5.73;;
6763;SDS011;47432;48.760;9.178;2023-08-24T00:33:02;9.70;;;6.40;;
6763;SDS011;47432;48.760;9.178;2023-08-24T00:35:29;11.17;;;6.30;;
6763;SDS011;47432;48.760;9.178;2023-08-24T00:37:55;9.30;;;5.93;;
6763;SDS011;47432;48.760;9.178;2023-08-24T00:40:21;10.03;;;5.63;;
6763;SDS011;47432;48.760;9.178;2023-08-24T00:42:47;10.57;;;5.87;;
6763;SDS011;47432;48.760;9.178;2023-08-24T00:45:15;9.30;;;6.40;;
6763;SDS011;47432;48.760;9.178;2023-08-24T00:47:42;10.73;;;6.40;;
6763;SDS011;47432;48.760;9.178;2023-08-24T00:50:10;10.07;;;6.67;;
6763;SDS011;47432;48.760;9.178;2023-08-24T00:52:38;11.00;;;7.00;;
6763;SDS011;47432;48.760;9.178;2023-08-24T00:55:06;10.97;;;6.33;;
6763;SDS011;47432;48.760;9.178;2023-08-24T00:57:33;10.80;;;6.80;;
6763;SDS011;47432;48.760;9.178;2023-08-24T01:00:04;10.20;;;6.77;;
6763;SDS011;47432;48.760;9.178;2023-08-24T01:02:35;10.30;;;6.53;;
6763;SDS011;47432;48.760;9.178;2023-08-24T01:05:04;9.80;;;6.37;;
6763;SDS011;47432;48.760;9.178;2023-08-24T01:07:32;9.93;;;6.60;;
6763;SDS011;47432;48.760;9.178;2023-08-24T01:10:00;9.87;;;6.73;;
6763;SDS011;47432;48.760;9.178;2023-08-24T01:18:28;9.50;;;6.03;;
6763;SDS011;47432;48.760;9.178;2023-08-24T01:20:55;10.73;;;6.27;;
6763;SDS011;47432;48.760;9.178;2023-08-24T01:26:23;10.30;;;7.20;;
6763;SDS011;47432;48.760;9.178;2023-08-24T01:28:49;13.40;;;7.27;;
6763;SDS011;47432;48.760;9.178;2023-08-24T01:31:16;11.07;;;7.17;;
6763;SDS011;47432;48.760;9.178;2023-08-24T01:33:42;10.90;;;7.10;;
6763;SDS011;47432;48.760;9.178;2023-08-24T01:36:09;11.90;;;7.20;;
6763;SDS011;47432;48.760;9.178;2023-08-24T01:38:38;11.90;;;7.47;;
6763;SDS011;47432;48.760;9.178;2023-08-24T01:43:52;13.47;;;8.37;;
6763;SDS011;47432;48.760;9.178;2023-08-24T01:46:21;11.57;;;7.40;;
6763;SDS011;47432;48.760;9.178;2023-08-24T01:48:49;15.23;;;8.13;;
6763;SDS011;47432;48.760;9.178;2023-08-24T01:51:17;12.80;;;8.37;;
6763;SDS011;47432;48.760;9.178;2023-08-24T01:53:47;12.47;;;8.60;;
6763;SDS011;47432;48.760;9.178;2023-08-24T01:56:15;13.10;;;9.30;;
6763;SDS011;47432;48.760;9.178;2023-08-24T01:58:42;12.10;;;8.67;;
6763;SDS011;47432;48.760;9.178;2023-08-24T02:01:08;12.33;;;9.07;;
6763;SDS011;47432;48.760;9.178;2023-08-24T02:03:35;11.13;;;8.20;;
6763;SDS011;47432;48.760;9.178;2023-08-24T02:06:03;12.00;;;8.20;;
6763;SDS011;47432;48.760;9.178;2023-08-24T02:08:31;12.60;;;9.13;;
6763;SDS011;47432;48.760;9.178;2023-08-24T02:10:57;17.47;;;8.60;;
6763;SDS011;47432;48.760;9.178;2023-08-24T02:13:23;10.83;;;8.50;;
6763;SDS011;47432;48.760;9.178;2023-08-24T02:15:49;12.20;;;8.33;;
6763;SDS011;47432;48.760;9.178;2023-08-24T02:18:15;14.97;;;8.50;;
6763;SDS011;47432;48.760;9.178;2023-08-24T02:20:40;13.67;;;8.80;;
6763;SDS011;47432;48.760;9.178;2023-08-24T02:23:08;13.60;;;8.33;;
6763;SDS011;47432;48.760;9.178;2023-08-24T02:25:34;12.33;;;7.47;;
6763;SDS011;47432;48.760;9.178;2023-08-24T02:28:00;11.33;;;7.50;;
6763;SDS011;47432;48.760;9.178;2023-08-24T02:30:25;11.47;;;8.87;;
6763;SDS011;47432;48.760;9.178;2023-08-24T02:32:53;10.57;;;7.47;;
6763;SDS011;47432;48.760;9.178;2023-08-24T02:35:19;12.87;;;8.80;;
6763;SDS011;47432;48.760;9.178;2023-08-24T02:37:45;13.13;;;7.90;;
6763;SDS011;47432;48.760;9.178;2023-08-24T02:40:10;14.67;;;8.70;;
6763;SDS011;47432;48.760;9.178;2023-08-24T02:42:36;12.17;;;7.70;;
6763;SDS011;47432;48.760;9.178;2023-08-24T02:45:02;11.37;;;7.73;;
6763;SDS011;47432;48.760;9.178;2023-08-24T02:47:29;10.13;;;7.23;;
6763;SDS011;47432;48.760;9.178;2023-08-24T02:49:54;11.73;;;7.70;;
6763;SDS011;47432;48.760;9.178;2023-08-24T02:52:22;12.40;;;8.10;;
6763;SDS011;47432;48.760;9.178;2023-08-24T02:54:48;16.70;;;8.33;;
6763;SDS011;47432;48.760;9.178;2023-08-24T02:57:14;11.03;;;7.50;;
6763;SDS011;47432;48.760;9.178;2023-08-24T02:59:39;12.47;;;7.47;;
6763;SDS011;47432;48.760;9.178;2023-08-24T03:02:09;13.70;;;8.20;;
6763;SDS011;47432;48.760;9.178;2023-08-24T03:04:37;13.87;;;7.77;;
6763;SDS011;47432;48.760;9.178;2023-08-24T03:07:03;11.50;;;7.70;;
6763;SDS011;47432;48.760;9.178;2023-08-24T03:09:28;11.30;;;7.67;;
6763;SDS011;47432;48.760;9.178;2023-08-24T03:11:54;11.53;;;7.40;;
6763;SDS011;47432;48.760;9.178;2023-08-24T03:14:20;13.00;;;7.77;;
6763;SDS011;47432;48.760;9.178;2023-08-24T03:16:45;12.50;;;7.80;;
6763;SDS011;47432;48.760;9.178;2023-08-24T03:19:11;11.00;;;7.50;;
6763;SDS011;47432;48.760;9.178;2023-08-24T03:21:39;13.57;;;8.73;;
6763;SDS011;47432;48.760;9.178;2023-08-24T03:24:05;12.50;;;7.93;;
6763;SDS011;47432;48.760;9.178;2023-08-24T03:26:31;12.20;;;8.00;;
6763;SDS011;47432;48.760;9.178;2023-08-24T03:28:57;13.20;;;8.00;;
6763;SDS011;47432;48.760;9.178;2023-08-24T03:31:22;10.97;;;7.60;;
6763;SDS011;47432;48.760;9.178;2023-08-24T03:33:51;11.00;;;7.60;;
6763;SDS011;47432;48.760;9.178;2023-08-24T03:36:17;12.77;;;8.30;;
6763;SDS011;47432;48.760;9.178;2023-08-24T03:38:43;12.43;;;7.60;;
6763;SDS011;47432;48.760;9.178;2023-08-24T03:41:10;11.17;;;7.47;;
6763;SDS011;47432;48.760;9.178;2023-08-24T03:43:36;12.10;;;8.07;;
6763;SDS011;47432;48.760;9.178;2023-08-24T03:46:02;11.97;;;8.40;;
6763;SDS011;47432;48.760;9.178;2023-08-24T03:48:29;12.27;;;8.50;;
6763;SDS011;47432;48.760;9.178;2023-08-24T03:50:57;11.50;;;7.80;;
6763;SDS011;47432;48.760;9.178;2023-08-24T03:53:23;11.73;;;7.40;;
6763;SDS011;47432;48.760;9.178;2023-08-24T03:55:53;11.47;;;8.60;;
6763;SDS011;47432;48.760;9.178;2023-08-24T03:58:21;11.40;;;7.80;;
6763;SDS011;47432;48.760;9.178;2023-08-24T04:00:47;10.80;;;7.90;;
6763;SDS011;47432;48.760;9.178;2023-08-24T04:03:13;10.60;;;7.47;;
6763;SDS011;47432;48.760;9.178;2023-08-24T04:05:39;10.20;;;7.73;;
6763;SDS011;47432;48.760;9.178;2023-08-24T04:08:04;12.10;;;7.67;;
6763;SDS011;47432;48.760;9.178;2023-08-24T04:10:30;11.23;;;7.67;;
6763;SDS011;47432;48.760;9.178;2023-08-24T04:12:56;10.83;;;7.87;;
6763;SDS011;47432;48.760;9.178;2023-08-24T04:15:22;12.40;;;7.93;;
6763;SDS011;47432;48.760;9.178;2023-08-24T04:17:48;13.13;;;8.27;;
6763;SDS011;47432;48.760;9.178;2023-08-24T04:20:14;12.50;;;8.20;;
6763;SDS011;47432;48.760;9.178;2023-08-24T04:22:41;12.50;;;7.60;;
6763;SDS011;47432;48.760;9.178;2023-08-24T04:25:07;12.07;;;7.53;;
6763;SDS011;47432;48.760;9.178;2023-08-24T04:27:36;11.57;;;7.77;;
6763;SDS011;47432;48.760;9.178;2023-08-24T04:30:02;12.73;;;8.37;;
6763;SDS011;47432;48.760;9.178;2023-08-24T04:32:31;10.50;;;7.90;;
6763;SDS011;47432;48.760;9.178;2023-08-24T04:35:00;12.63;;;8.00;;
6763;SDS011;47432;48.760;9.178;2023-08-24T04:37:28;10.03;;;7.43;;
6763;SDS011;47432;48.760;9.178;2023-08-24T04:39:53;11.00;;;7.83;;
6763;SDS011;47432;48.760;9.178;2023-08-24T04:42:21;10.50;;;7.50;;
6763;SDS011;47432;48.760;9.178;2023-08-24T04:44:47;12.93;;;8.23;;
6763;SDS011;47432;48.760;9.178;2023-08-24T04:47:13;13.00;;;9.30;;
6763;SDS011;47432;48.760;9.178;2023-08-24T04:49:38;12.00;;;9.17;;
6763;SDS011;47432;48.760;9.178;2023-08-24T04:52:04;11.73;;;8.00;;
6763;SDS011;47432;48.760;9.178;2023-08-24T04:54:30;15.03;;;8.90;;
6763;SDS011;47432;48.760;9.178;2023-08-24T04:56:55;12.80;;;8.50;;
6763;SDS011;47432;48.760;9.178;2023-08-24T04:59:21;13.47;;;7.90;;
6763;SDS011;47432;48.760;9.178;2023-08-24T05:01:47;13.53;;;8.33;;
6763;SDS011;47432;48.760;9.178;2023-08-24T05:04:13;12.30;;;7.93;;
6763;SDS011;47432;48.760;9.178;2023-08-24T05:06:39;11.47;;;8.00;;
6763;SDS011;47432;48.760;9.178;2023-08-24T05:09:07;11.47;;;8.17;;
6763;SDS011;47432;48.760;9.178;2023-08-24T05:11:33;12.30;;;9.27;;
6763;SDS011;47432;48.760;9.178;2023-08-24T05:13:59;13.63;;;9.20;;
6763;SDS011;47432;48.760;9.178;2023-08-24T05:16:27;13.13;;;8.80;;
6763;SDS011;47432;48.760;9.178;2023-08-24T05:18:53;13.40;;;9.17;;
6763;SDS011;47432;48.760;9.178;2023-08-24T05:21:18;13.40;;;9.73;;
6763;SDS011;47432;48.760;9.178;2023-08-24T05:23:44;12.33;;;8.67;;
6763;SDS011;47432;48.760;9.178;2023-08-24T05:26:10;12.30;;;8.50;;
6763;SDS011;47432;48.760;9.178;2023-08-24T05:28:35;12.90;;;8.50;;
6763;SDS011;47432;48.760;9.178;2023-08-24T05:31:01;15.30;;;8.60;;
6763;SDS011;47432;48.760;9.178;2023-08-24T05:33:27;11.30;;;8.30;;
6763;SDS011;47432;48.760;9.178;2023-08-24T05:35:55;11.50;;;8.23;;
6763;SDS011;47432;48.760;9.178;2023-08-24T05:38:22;13.63;;;8.80;;
6763;SDS011;47432;48.760;9.178;2023-08-24T05:40:48;11.83;;;8.17;;
6763;SDS011;47432;48.760;9.178;2023-08-24T05:43:16;12.77;;;9.27;;
6763;SDS011;47432;48.760;9.178;2023-08-24T05:45:42;11.40;;;8.43;;
6763;SDS011;47432;48.760;9.178;2023-08-24T05:48:10;13.03;;;8.80;;
6763;SDS011;47432;48.760;9.178;2023-08-24T05:50:42;11.23;;;7.90;;
6763;SDS011;47432;48.760;9.178;2023-08-24T05:53:11;11.80;;;8.20;;
6763;SDS011;47432;48.760;9.178;2023-08-24T05:55:38;10.40;;;7.80;;
6763;SDS011;47432;48.760;9.178;2023-08-24T05:58:04;12.70;;;8.10;;
6763;SDS011;47432;48.760;9.178;2023-08-24T06:00:30;12.97;;;8.13;;
6763;SDS011;47432;48.760;9.178;2023-08-24T06:02:55;11.43;;;7.40;;
6763;SDS011;47432;48.760;9.178;2023-08-24T06:05:21;10.93;;;7.50;;
6763;SDS011;47432;48.760;9.178;2023-08-24T06:07:48;13.50;;;7.83;;
6763;SDS011;47432;48.760;9.178;2023-08-24T06:10:16;10.90;;;7.00;;
6763;SDS011;47432;48.760;9.178;2023-08-24T06:12:42;16.70;;;7.10;;
6763;SDS011;47432;48.760;9.178;2023-08-24T06:15:07;12.30;;;7.47;;
6763;SDS011;47432;48.760;9.178;2023-08-24T06:17:37;10.60;;;7.10;;
6763;SDS011;47432;48.760;9.178;2023-08-24T06:20:03;12.90;;;6.50;;
6763;SDS011;47432;48.760;9.178;2023-08-24T06:22:30;11.03;;;6.70;;
6763;SDS011;47432;48.760;9.178;2023-08-24T06:24:58;11.07;;;7.33;;
6763;SDS011;47432;48.760;9.178;2023-08-24T06:27:25;11.27;;;6.63;;
6763;SDS011;47432;48.760;9.178;2023-08-24T06:29:51;11.03;;;7.03;;
6763;SDS011;47432;48.760;9.178;2023-08-24T06:32:20;11.57;;;6.80;;
6763;SDS011;47432;48.760;9.178;2023-08-24T06:34:46;12.63;;;7.43;;
6763;SDS011;47432;48.760;9.178;2023-08-24T06:37:11;12.60;;;7.03;;
6763;SDS011;47432;48.760;9.178;2023-08-24T06:39:37;10.20;;;6.67;;
6763;SDS011;47432;48.760;9.178;2023-08-24T06:42:03;10.47;;;6.53;;
6763;SDS011;47432;48.760;9.178;2023-08-24T06:44:29;12.90;;;6.90;;
6763;SDS011;47432;48.760;9.178;2023-08-24T06:46:54;14.13;;;7.53;;
6763;SDS011;47432;48.760;9.178;2023-08-24T06:49:20;10.30;;;6.37;;
6763;SDS011;47432;48.760;9.178;2023-08-24T06:51:46;10.70;;;6.70;;
6763;SDS011;47432;48.760;9.178;2023-08-24T06:54:12;12.47;;;7.00;;
6763;SDS011;47432;48.760;9.178;2023-08-24T06:56:40;10.93;;;6.80;;
6763;SDS011;47432;48.760;9.178;2023-08-24T06:59:11;10.43;;;6.30;;
6763;SDS011;47432;48.760;9.178;2023-08-24T07:01:38;12.20;;;6.97;;
6763;SDS011;47432;48.760;9.178;2023-08-24T07:04:04;10.57;;;6.00;;
6763;SDS011;47432;48.760;9.178;2023-08-24T07:06:29;11.50;;;6.33;;
6763;SDS011;47432;48.760;9.178;2023-08-24T07:09:00;11.80;;;5.93;;
6763;SDS011;47432;48.760;9.178;2023-08-24T07:11:31;12.43;;;6.20;;
6763;SDS011;47432;48.760;9.178;2023-08-24T07:13:57;14.57;;;5.97;;
6763;SDS011;47432;48.760;9.178;2023-08-24T07:16:23;12.60;;;6.47;;
6763;SDS011;47432;48.760;9.178;2023-08-24T07:18:48;11.10;;;6.20;;
6763;SDS011;47432;48.760;9.178;2023-08-24T07:21:14;13.40;;;6.77;;
6763;SDS011;47432;48.760;9.178;2023-08-24T07:23:41;12.20;;;6.80;;
6763;SDS011;47432;48.760;9.178;2023-08-24T07:26:07;12.43;;;6.87;;
6763;SDS011;47432;48.760;9.178;2023-08-24T07:28:33;15.43;;;6.50;;
6763;SDS011;47432;48.760;9.178;2023-08-24T07:31:06;12.37;;;6.77;;
6763;SDS011;47432;48.760;9.178;2023-08-24T07:33:38;13.23;;;7.67;;
6763;SDS011;47432;48.760;9.178;2023-08-24T07:36:04;14.37;;;8.77;;
6763;SDS011;47432;48.760;9.178;2023-08-24T07:38:30;13.60;;;7.60;;
6763;SDS011;47432;48.760;9.178;2023-08-24T07:40:57;11.90;;;8.03;;
6763;SDS011;47432;48.760;9.178;2023-08-24T07:43:23;13.60;;;7.93;;
6763;SDS011;47432;48.760;9.178;2023-08-24T07:45:49;14.40;;;8.27;;
6763;SDS011;47432;48.760;9.178;2023-08-24T07:48:16;14.63;;;8.43;;
6763;SDS011;47432;48.760;9.178;2023-08-24T07:50:42;16.10;;;8.00;;
6763;SDS011;47432;48.760;9.178;2023-08-24T07:53:08;14.67;;;9.13;;
6763;SDS011;47432;48.760;9.178;2023-08-24T07:55:34;12.10;;;8.60;;
6763;SDS011;47432;48.760;9.178;2023-08-24T07:57:59;13.10;;;7.13;;
6763;SDS011;47432;48.760;9.178;2023-08-24T08:00:25;16.00;;;8.30;;
6763;SDS011;47432;48.760;9.178;2023-08-24T08:02:51;16.90;;;9.00;;
6763;SDS011;47432;48.760;9.178;2023-08-24T08:05:17;13.80;;;8.83;;
6763;SDS011;47432;48.760;9.178;2023-08-24T08:07:45;15.83;;;8.40;;
6763;SDS011;47432;48.760;9.178;2023-08-24T08:10:11;15.50;;;9.07;;
6763;SDS011;47432;48.760;9.178;2023-08-24T08:12:37;12.87;;;8.80;;
6763;SDS011;47432;48.760;9.178;2023-08-24T08:15:02;15.47;;;9.60;;
6763;SDS011;47432;48.760;9.178;2023-08-24T08:17:29;17.23;;;9.13;;
6763;SDS011;47432;48.760;9.178;2023-08-24T08:19:58;14.83;;;8.90;;
6763;SDS011;47432;48.760;9.178;2023-08-24T08:22:24;14.50;;;9.13;;
6763;SDS011;47432;48.760;9.178;2023-08-24T08:24:54;14.33;;;8.70;;
6763;SDS011;47432;48.760;9.178;2023-08-24T08:27:21;11.20;;;8.37;;
6763;SDS011;47432;48.760;9.178;2023-08-24T08:29:48;13.10;;;7.60;;
6763;SDS011;47432;48.760;9.178;2023-08-24T08:32:15;12.80;;;7.90;;
6763;SDS011;47432;48.760;9.178;2023-08-24T08:34:40;14.50;;;7.70;;
6763;SDS011;47432;48.760;9.178;2023-08-24T08:37:06;14.17;;;8.03;;
6763;SDS011;47432;48.760;9.178;2023-08-24T08:39:32;11.70;;;7.13;;
6763;SDS011;47432;48.760;9.178;2023-08-24T08:41:58;13.20;;;7.57;;
6763;SDS011;47432;48.760;9.178;2023-08-24T08:44:25;11.43;;;8.00;;
6763;SDS011;47432;48.760;9.178;2023-08-24T08:46:59;11.10;;;6.77;;
6763;SDS011;47432;48.760;9.178;2023-08-24T08:49:25;12.50;;;7.17;;
6763;SDS011;47432;48.760;9.178;2023-08-24T08:51:51;12.03;;;7.80;;
6763;SDS011;47432;48.760;9.178;2023-08-24T08:54:18;10.73;;;6.30;;
6763;SDS011;47432;48.760;9.178;2023-08-24T08:56:43;15.30;;;6.70;;
6763;SDS011;47432;48.760;9.178;2023-08-24T08:59:09;10.60;;;6.80;;
6763;SDS011;47432;48.760;9.178;2023-08-24T09:01:39;12.47;;;6.77;;
6763;SDS011;47432;48.760;9.178;2023-08-24T09:04:06;11.23;;;6.60;;
6763;SDS011;47432;48.760;9.178;2023-08-24T09:06:32;9.40;;;5.70;;
6763;SDS011;47432;48.760;9.178;2023-08-24T09:08:59;16.10;;;7.23;;
6763;SDS011;47432;48.760;9.178;2023-08-24T09:11:26;12.73;;;6.67;;
6763;SDS011;47432;48.760;9.178;2023-08-24T09:13:52;13.97;;;6.80;;
6763;SDS011;47432;48.760;9.178;2023-08-24T09:16:17;11.90;;;6.60;;
6763;SDS011;47432;48.760;9.178;2023-08-24T09:18:45;9.63;;;6.50;;
6763;SDS011;47432;48.760;9.178;2023-08-24T09:21:12;13.87;;;6.87;;
6763;SDS011;47432;48.760;9.178;2023-08-24T09:23:44;10.57;;;6.43;;
6763;SDS011;47432;48.760;9.178;2023-08-24T09:26:27;11.53;;;6.73;;
6763;SDS011;47432;48.760;9.178;2023-08-24T09:28:54;10.60;;;6.00;;
6763;SDS011;47432;48.760;9.178;2023-08-24T09:31:20;12.57;;;6.73;;
6763;SDS011;47432;48.760;9.178;2023-08-24T09:34:01;10.03;;;6.03;;
6763;SDS011;47432;48.760;9.178;2023-08-24T09:36:27;12.30;;;6.10;;
6763;SDS011;47432;48.760;9.178;2023-08-24T09:39:00;9.70;;;6.17;;
6763;SDS011;47432;48.760;9.178;2023-08-24T09:42:03;12.53;;;6.67;;
6763;SDS011;47432;48.760;9.178;2023-08-24T09:44:26;14.60;;;7.23;;
6763;SDS011;47432;48.760;9.178;2023-08-24T09:46:53;11.47;;;6.10;;
6763;SDS011;47432;48.760;9.178;2023-08-24T09:49:19;12.23;;;6.33;;
6763;SDS011;47432;48.760;9.178;2023-08-24T09:51:46;9.80;;;6.40;;
6763;SDS011;47432;48.760;9.178;2023-08-24T09:54:14;9.93;;;6.70;;
6763;SDS011;47432;48.760;9.178;2023-08-24T09:56:43;12.43;;;6.37;;
6763;SDS011;47432;48.760;9.178;2023-08-24T09:59:10;21.00;;;7.10;;
6763;SDS011;47432;48.760;9.178;2023-08-24T10:01:38;10.00;;;6.17;;
6763;SDS011;47432;48.760;9.178;2023-08-24T10:04:12;13.67;;;7.63;;
6763;SDS011;47432;48.760;9.178;2023-08-24T10:06:40;10.70;;;6.70;;
6763;SDS011;47432;48.760;9.178;2023-08-24T10:09:08;12.00;;;6.60;;
6763;SDS011;47432;48.760;9.178;2023-08-24T10:11:48;10.80;;;6.30;;
6763;SDS011;47432;48.760;9.178;2023-08-24T10:14:19;10.30;;;6.10;;
6763;SDS011;47432;48.760;9.178;2023-08-24T10:17:11;13.77;;;7.73;;
6763;SDS011;47432;48.760;9.178;2023-08-24T10:19:38;11.53;;;7.13;;
6763;SDS011;47432;48.760;9.178;2023-08-24T10:22:06;12.53;;;6.23;;
6763;SDS011;47432;48.760;9.178;2023-08-24T10:24:33;10.20;;;6.97;;
6763;SDS011;47432;48.760;9.178;2023-08-24T10:27:00;15.83;;;7.80;;
6763;SDS011;47432;48.760;9.178;2023-08-24T10:29:28;11.30;;;6.87;;
6763;SDS011;47432;48.760;9.178;2023-08-24T10:31:55;13.53;;;7.87;;
6763;SDS011;47432;48.760;9.178;2023-08-24T10:34:23;12.70;;;7.07;;
6763;SDS011;47432;48.760;9.178;2023-08-24T10:36:49;11.10;;;6.33;;
6763;SDS011;47432;48.760;9.178;2023-08-24T10:39:16;11.37;;;6.53;;
6763;SDS011;47432;48.760;9.178;2023-08-24T10:41:48;12.50;;;6.60;;
6763;SDS011;47432;48.760;9.178;2023-08-24T10:44:20;10.13;;;6.37;;
6763;SDS011;47432;48.760;9.178;2023-08-24T10:47:15;11.33;;;7.33;;
6763;SDS011;47432;48.760;9.178;2023-08-24T10:49:57;12.67;;;7.13;;
6763;SDS011;47432;48.760;9.178;2023-08-24T10:52:35;11.90;;;6.47;;
6763;SDS011;47432;48.760;9.178;2023-08-24T10:55:04;10.30;;;6.40;;
6763;SDS011;47432;48.760;9.178;2023-08-24T10:57:52;10.60;;;6.40;;
6763;SDS011;47432;48.760;9.178;2023-08-24T11:00:25;10.30;;;6.77;;
6763;SDS011;47432;48.760;9.178;2023-08-24T11:02:53;12.00;;;7.30;;
6763;SDS011;47432;48.760;9.178;2023-08-24T11:05:23;11.20;;;6.53;;
6763;SDS011;47432;48.760;9.178;2023-08-24T11:07:53;11.23;;;7.73;;
6763;SDS011;47432;48.760;9.178;2023-08-24T11:10:25;12.67;;;7.90;;
6763;SDS011;47432;48.760;9.178;2023-08-24T11:13:12;13.10;;;7.30;;
6763;SDS011;47432;48.760;9.178;2023-08-24T11:15:45;13.40;;;7.47;;
6763;SDS011;47432;48.760;9.178;2023-08-24T11:23:25;9.87;;;6.97;;
6763;SDS011;47432;48.760;9.178;2023-08-24T11:25:51;11.17;;;7.43;;
6763;SDS011;47432;48.760;9.178;2023-08-24T11:28:23;11.07;;;6.43;;
6763;SDS011;47432;48.760;9.178;2023-08-24T11:30:51;11.13;;;6.80;;
6763;SDS011;47432;48.760;9.178;2023-08-24T11:33:26;11.80;;;7.50;;
6763;SDS011;47432;48.760;9.178;2023-08-24T11:35:57;15.37;;;7.57;;
6763;SDS011;47432;48.760;9.178;2023-08-24T11:38:27;11.43;;;7.20;;
6763;SDS011;47432;48.760;9.178;2023-08-24T11:41:13;10.63;;;6.63;;
6763;SDS011;47432;48.760;9.178;2023-08-24T11:43:47;10.60;;;6.63;;
6763;SDS011;47432;48.760;9.178;2023-08-24T11:46:16;14.67;;;7.30;;
6763;SDS011;47432;48.760;9.178;2023-08-24T11:48:43;11.87;;;7.43;;
6763;SDS011;47432;48.760;9.178;2023-08-24T11:51:10;12.60;;;7.07;;
6763;SDS011;47432;48.760;9.178;2023-08-24T11:53:41;13.93;;;8.00;;
6763;SDS011;47432;48.760;9.178;2023-08-24T11:56:09;19.50;;;7.73;;
6763;SDS011;47432;48.760;9.178;2023-08-24T11:58:38;13.23;;;7.17;;
6763;SDS011;47432;48.760;9.178;2023-08-24T12:01:09;12.17;;;6.80;;
6763;SDS011;47432;48.760;9.178;2023-08-24T12:03:37;12.80;;;6.87;;
6763;SDS011;47432;48.760;9.178;2023-08-24T12:06:14;11.70;;;6.50;;
6763;SDS011;47432;48.760;9.178;2023-08-24T12:08:42;13.10;;;7.27;;
6763;SDS011;47432;48.760;9.178;2023-08-24T12:11:17;13.30;;;7.37;;
6763;SDS011;47432;48.760;9.178;2023-08-24T12:13:46;12.80;;;7.60;;
6763;SDS011;47432;48.760;9.178;2023-08-24T12:16:15;14.03;;;7.50;;
6763;SDS011;47432;48.760;9.178;2023-08-24T12:18:52;13.13;;;7.33;;
6763;SDS011;47432;48.760;9.178;2023-08-24T12:21:21;12.30;;;6.43;;
6763;SDS011;47432;48.760;9.178;2023-08-24T12:24:01;10.67;;;7.07;;
6763;SDS011;47432;48.760;9.178;2023-08-24T12:26:31;13.30;;;6.83;;
6763;SDS011;47432;48.760;9.178;2023-08-24T12:29:02;12.90;;;7.90;;
6763;SDS011;47432;48.760;9.178;2023-08-24T12:31:31;12.43;;;7.27;;
6763;SDS011;47432;48.760;9.178;2023-08-24T12:33:58;12.00;;;7.00;;
6763;SDS011;47432;48.760;9.178;2023-08-24T12:36:35;17.30;;;6.40;;
6763;SDS011;47432;48.760;9.178;2023-08-24T12:39:02;13.43;;;7.10;;
6763;SDS011;47432;48.760;9.178;2023-08-24T12:41:29;10.97;;;6.63;;
6763;SDS011;47432;48.760;9.178;2023-08-24T12:43:55;11.13;;;7.37;;
6763;SDS011;47432;48.760;9.178;2023-08-24T12:46:21;13.53;;;7.17;;
6763;SDS011;47432;48.760;9.178;2023-08-24T12:48:48;13.63;;;7.17;;
6763;SDS011;47432;48.760;9.178;2023-08-24T12:51:15;11.93;;;6.30;;
6763;SDS011;47432;48.760;9.178;2023-08-24T12:53:41;12.07;;;7.03;;
6763;SDS011;47432;48.760;9.178;2023-08-24T12:56:08;12.83;;;6.43;;
6763;SDS011;47432;48.760;9.178;2023-08-24T12:58:34;12.83;;;6.87;;
6763;SDS011;47432;48.760;9.178;2023-08-24T13:01:00;14.90;;;7.07;;
6763;SDS011;47432;48.760;9.178;2023-08-24T13:03:26;13.67;;;6.40;;
6763;SDS011;47432;48.760;9.178;2023-08-24T13:05:51;12.53;;;6.70;;
6763;SDS011;47432;48.760;9.178;2023-08-24T13:08:17;11.50;;;6.20;;
6763;SDS011;47432;48.760;9.178;2023-08-24T13:10:43;14.10;;;6.30;;
6763;SDS011;47432;48.760;9.178;2023-08-24T13:13:09;10.97;;;6.37;;
6763;SDS011;47432;48.760;9.178;2023-08-24T13:15:34;13.13;;;6.30;;
6763;SDS011;47432;48.760;9.178;2023-08-24T13:18:00;11.13;;;6.60;;
6763;SDS011;47432;48.760;9.178;2023-08-24T13:20:26;13.20;;;6.37;;
6763;SDS011;47432;48.760;9.178;2023-08-24T13:22:54;13.63;;;6.80;;
6763;SDS011;47432;48.760;9.178;2023-08-24T13:25:20;12.60;;;6.80;;
6763;SDS011;47432;48.760;9.178;2023-08-24T13:27:45;12.53;;;6.80;;
6763;SDS011;47432;48.760;9.178;2023-08-24T13:30:13;10.67;;;6.20;;
6763;SDS011;47432;48.760;9.178;2023-08-24T13:32:39;13.40;;;6.60;;
6763;SDS011;47432;48.760;9.178;2023-08-24T13:35:05;14.70;;;6.60;;
6763;SDS011;47432;48.760;9.178;2023-08-24T13:37:31;12.13;;;6.70;;
6763;SDS011;47432;48.760;9.178;2023-08-24T13:40:00;11.37;;;6.53;;
6763;SDS011;47432;48.760;9.178;2023-08-24T13:42:26;13.80;;;6.10;;
6763;SDS011;47432;48.760;9.178;2023-08-24T13:44:52;15.30;;;6.67;;
6763;SDS011;47432;48.760;9.178;2023-08-24T13:47:18;16.67;;;5.97;;
6763;SDS011;47432;48.760;9.178;2023-08-24T13:49:46;13.33;;;6.10;;
6763;SDS011;47432;48.760;9.178;2023-08-24T13:52:12;14.23;;;5.80;;
6763;SDS011;47432;48.760;9.178;2023-08-24T13:54:38;13.80;;;5.87;;
6763;SDS011;47432;48.760;9.178;2023-08-24T13:57:04;14.17;;;6.03;;
6763;SDS011;47432;48.760;9.178;2023-08-24T13:59:32;14.00;;;5.80;;
6763;SDS011;47432;48.760;9.178;2023-08-24T14:01:58;10.60;;;5.20;;
6763;SDS011;47432;48.760;9.178;2023-08-24T14:04:23;11.70;;;5.30;;
6763;SDS011;47432;48.760;9.178;2023-08-24T14:06:49;14.97;;;5.60;;
6763;SDS011;47432;48.760;9.178;2023-08-24T14:09:15;13.47;;;5.20;;
6763;SDS011;47432;48.760;9.178;2023-08-24T14:11:41;15.40;;;5.90;;
6763;SDS011;47432;48.760;9.178;2023-08-24T14:14:07;17.00;;;5.83;;
6763;SDS011;47432;48.760;9.178;2023-08-24T14:16:33;13.17;;;5.17;;
6763;SDS011;47432;48.760;9.178;2023-08-24T14:18:58;15.33;;;5.63;;
6763;SDS011;47432;48.760;9.178;2023-08-24T14:21:24;16.30;;;6.20;;
6763;SDS011;47432;48.760;9.178;2023-08-24T14:23:50;15.13;;;5.53;;
6763;SDS011;47432;48.760;9.178;2023-08-24T14:26:18;16.87;;;6.13;;
6763;SDS011;47432;48.760;9.178;2023-08-24T14:28:48;13.90;;;5.53;;
6763;SDS011;47432;48.760;9.178;2023-08-24T14:31:24;15.90;;;5.37;;
6763;SDS011;47432;48.760;9.178;2023-08-24T14:33:52;11.40;;;4.97;;
6763;SDS011;47432;48.760;9.178;2023-08-24T14:36:18;16.60;;;5.20;;
6763;SDS011;47432;48.760;9.178;2023-08-24T14:38:48;14.60;;;5.93;;
6763;SDS011;47432;48.760;9.178;2023-08-24T14:41:14;12.17;;;5.93;;
6763;SDS011;47432;48.760;9.178;2023-08-24T14:43:41;11.63;;;5.33;;
6763;SDS011;47432;48.760;9.178;2023-08-24T14:46:07;13.53;;;5.50;;
6763;SDS011;47432;48.760;9.178;2023-08-24T14:48:33;13.73;;;5.80;;
6763;SDS011;47432;48.760;9.178;2023-08-24T14:50:59;16.57;;;5.90;;
6763;SDS011;47432;48.760;9.178;2023-08-24T14:53:27;13.90;;;5.80;;
6763;SDS011;47432;48.760;9.178;2023-08-24T14:55:54;15.33;;;5.87;;
6763;SDS011;47432;48.760;9.178;2023-08-24T14:58:21;15.70;;;5.40;;
6763;SDS011;47432;48.760;9.178;2023-08-24T15:00:51;20.10;;;7.60;;
6763;SDS011;47432;48.760;9.178;2023-08-24T15:03:20;14.17;;;6.43;;
6763;SDS011;47432;48.760;9.178;2023-08-24T15:05:55;13.00;;;8.10;;
6763;SDS011;47432;48.760;9.178;2023-08-24T15:08:28;14.03;;;7.90;;